Jacksontown, Ohio
Current Conditions -  °F | °C
As of 7:29 AM on Monday 26 Jan 2015 (Local Time) from KVTA Reporting Station
Light Snow Light Snow  
Wind Chill: 16°   Ceiling: 2500
Heat Index: 23°   Visibility: 2mi
Dew Point: 19°   Wind: 6mph
Humidity: 85%   Direction: 360°N
Pressure: 29.75"   Gusts: NA
Location:  39.96°N, 82.41°W
Report Text: KVTA 261229Z AUTO 36005KT 2SM -SN BR OVC025 M05/M07 A2975 RMK AO2 P0001 T10501072
Loading
Personal Weather Stations






























Interactive Weather Map New forecast layout! Learn more

10-Day Weather Forecast

Advertisements
Track Severe Weather on mobile